sensor_id;sensor_type;location;lat;lon;timestamp;P1;durP1;ratioP1;P2;durP2;ratioP2
40533;SDS011;26233;51.894;10.192;2023-08-31T00:01:30;3.63;;;3.05;;
40533;SDS011;26233;51.894;10.192;2023-08-31T00:03:59;3.17;;;2.95;;
40533;SDS011;26233;51.894;10.192;2023-08-31T00:06:26;3.15;;;2.95;;
40533;SDS011;26233;51.894;10.192;2023-08-31T00:08:53;3.60;;;3.17;;
40533;SDS011;26233;51.894;10.192;2023-08-31T00:11:20;3.28;;;2.97;;
40533;SDS011;26233;51.894;10.192;2023-08-31T00:13:47;3.30;;;2.95;;
40533;SDS011;26233;51.894;10.192;2023-08-31T00:16:14;2.95;;;2.72;;
40533;SDS011;26233;51.894;10.192;2023-08-31T00:18:41;2.80;;;2.60;;
40533;SDS011;26233;51.894;10.192;2023-08-31T00:21:11;3.13;;;2.88;;
40533;SDS011;26233;51.894;10.192;2023-08-31T00:23:38;3.42;;;2.95;;
40533;SDS011;26233;51.894;10.192;2023-08-31T00:26:05;2.90;;;2.70;;
40533;SDS011;26233;51.894;10.192;2023-08-31T00:28:33;3.00;;;2.75;;
40533;SDS011;26233;51.894;10.192;2023-08-31T00:31:01;3.22;;;2.97;;
40533;SDS011;26233;51.894;10.192;2023-08-31T00:33:29;3.63;;;3.20;;
40533;SDS011;26233;51.894;10.192;2023-08-31T00:35:58;3.08;;;2.85;;
40533;SDS011;26233;51.894;10.192;2023-08-31T00:38:29;3.30;;;3.00;;
40533;SDS011;26233;51.894;10.192;2023-08-31T00:40:56;3.40;;;3.10;;
40533;SDS011;26233;51.894;10.192;2023-08-31T00:43:24;2.95;;;2.75;;
40533;SDS011;26233;51.894;10.192;2023-08-31T00:45:51;2.95;;;2.75;;
40533;SDS011;26233;51.894;10.192;2023-08-31T00:48:23;3.55;;;3.25;;
40533;SDS011;26233;51.894;10.192;2023-08-31T00:50:51;3.60;;;3.30;;
40533;SDS011;26233;51.894;10.192;2023-08-31T00:53:18;3.50;;;3.17;;
40533;SDS011;26233;51.894;10.192;2023-08-31T00:55:51;3.13;;;2.92;;
40533;SDS011;26233;51.894;10.192;2023-08-31T00:58:18;4.00;;;3.53;;
40533;SDS011;26233;51.894;10.192;2023-08-31T01:00:47;3.40;;;3.10;;
40533;SDS011;26233;51.894;10.192;2023-08-31T01:03:28;3.80;;;3.50;;
40533;SDS011;26233;51.894;10.192;2023-08-31T01:06:07;3.45;;;3.15;;
40533;SDS011;26233;51.894;10.192;2023-08-31T01:08:56;3.20;;;3.00;;
40533;SDS011;26233;51.894;10.192;2023-08-31T01:11:41;3.83;;;3.08;;
40533;SDS011;26233;51.894;10.192;2023-08-31T01:14:19;3.38;;;3.08;;
40533;SDS011;26233;51.894;10.192;2023-08-31T01:19:23;3.78;;;3.47;;
40533;SDS011;26233;51.894;10.192;2023-08-31T01:22:09;3.80;;;3.47;;
40533;SDS011;26233;51.894;10.192;2023-08-31T01:24:44;3.78;;;3.47;;
40533;SDS011;26233;51.894;10.192;2023-08-31T01:27:12;4.07;;;3.70;;
40533;SDS011;26233;51.894;10.192;2023-08-31T01:29:40;4.35;;;3.95;;
40533;SDS011;26233;51.894;10.192;2023-08-31T01:32:07;3.83;;;3.53;;
40533;SDS011;26233;51.894;10.192;2023-08-31T01:34:37;4.60;;;4.00;;
40533;SDS011;26233;51.894;10.192;2023-08-31T01:37:06;4.53;;;4.13;;
40533;SDS011;26233;51.894;10.192;2023-08-31T01:39:39;4.45;;;4.05;;
40533;SDS011;26233;51.894;10.192;2023-08-31T01:42:17;4.30;;;4.00;;
40533;SDS011;26233;51.894;10.192;2023-08-31T01:44:45;4.50;;;4.10;;
40533;SDS011;26233;51.894;10.192;2023-08-31T01:47:15;4.70;;;4.30;;
40533;SDS011;26233;51.894;10.192;2023-08-31T01:49:46;4.53;;;4.13;;
40533;SDS011;26233;51.894;10.192;2023-08-31T01:52:13;4.45;;;4.05;;
40533;SDS011;26233;51.894;10.192;2023-08-31T01:54:40;4.97;;;4.40;;
40533;SDS011;26233;51.894;10.192;2023-08-31T01:57:09;4.68;;;4.28;;
40533;SDS011;26233;51.894;10.192;2023-08-31T01:59:36;4.60;;;4.20;;
40533;SDS011;26233;51.894;10.192;2023-08-31T02:02:03;4.38;;;3.97;;
40533;SDS011;26233;51.894;10.192;2023-08-31T02:04:30;4.22;;;3.92;;
40533;SDS011;26233;51.894;10.192;2023-08-31T02:06:58;4.78;;;4.38;;
40533;SDS011;26233;51.894;10.192;2023-08-31T02:09:28;4.43;;;4.03;;
40533;SDS011;26233;51.894;10.192;2023-08-31T02:11:55;4.45;;;4.15;;
40533;SDS011;26233;51.894;10.192;2023-08-31T02:14:23;4.50;;;4.10;;
40533;SDS011;26233;51.894;10.192;2023-08-31T02:16:50;4.70;;;4.30;;
40533;SDS011;26233;51.894;10.192;2023-08-31T02:19:17;4.53;;;4.22;;
40533;SDS011;26233;51.894;10.192;2023-08-31T02:21:44;4.53;;;4.13;;
40533;SDS011;26233;51.894;10.192;2023-08-31T02:24:11;4.72;;;4.32;;
40533;SDS011;26233;51.894;10.192;2023-08-31T02:26:40;4.93;;;4.43;;
40533;SDS011;26233;51.894;10.192;2023-08-31T02:29:07;4.50;;;4.20;;
40533;SDS011;26233;51.894;10.192;2023-08-31T02:31:39;4.60;;;4.20;;
40533;SDS011;26233;51.894;10.192;2023-08-31T02:34:10;4.85;;;4.38;;
40533;SDS011;26233;51.894;10.192;2023-08-31T02:36:37;4.32;;;3.95;;
40533;SDS011;26233;51.894;10.192;2023-08-31T02:39:04;5.20;;;4.65;;
40533;SDS011;26233;51.894;10.192;2023-08-31T02:41:31;4.50;;;4.20;;
40533;SDS011;26233;51.894;10.192;2023-08-31T02:43:59;5.40;;;4.20;;
40533;SDS011;26233;51.894;10.192;2023-08-31T02:46:26;4.25;;;3.85;;
40533;SDS011;26233;51.894;10.192;2023-08-31T02:48:58;4.60;;;4.20;;
40533;SDS011;26233;51.894;10.192;2023-08-31T02:51:25;4.78;;;4.00;;
40533;SDS011;26233;51.894;10.192;2023-08-31T02:53:54;4.10;;;3.70;;
40533;SDS011;26233;51.894;10.192;2023-08-31T02:56:21;4.30;;;4.00;;
40533;SDS011;26233;51.894;10.192;2023-08-31T02:58:48;4.18;;;3.85;;
40533;SDS011;26233;51.894;10.192;2023-08-31T03:01:15;4.25;;;3.85;;
40533;SDS011;26233;51.894;10.192;2023-08-31T03:03:42;4.50;;;3.97;;
40533;SDS011;26233;51.894;10.192;2023-08-31T03:06:12;4.57;;;4.18;;
40533;SDS011;26233;51.894;10.192;2023-08-31T03:08:40;4.10;;;3.78;;
40533;SDS011;26233;51.894;10.192;2023-08-31T05:21:24;5.50;;;5.03;;
40533;SDS011;26233;51.894;10.192;2023-08-31T05:23:51;5.03;;;4.60;;
40533;SDS011;26233;51.894;10.192;2023-08-31T05:26:18;5.53;;;5.03;;
40533;SDS011;26233;51.894;10.192;2023-08-31T05:28:45;5.57;;;5.07;;
40533;SDS011;26233;51.894;10.192;2023-08-31T05:31:12;6.20;;;4.90;;
40533;SDS011;26233;51.894;10.192;2023-08-31T05:36:07;5.22;;;4.75;;
40533;SDS011;26233;51.894;10.192;2023-08-31T05:38:36;5.35;;;4.72;;
40533;SDS011;26233;51.894;10.192;2023-08-31T05:41:04;5.30;;;4.80;;
40533;SDS011;26233;51.894;10.192;2023-08-31T05:43:32;5.47;;;4.95;;
40533;SDS011;26233;51.894;10.192;2023-08-31T05:46:00;5.20;;;4.70;;
40533;SDS011;26233;51.894;10.192;2023-08-31T05:48:27;6.38;;;5.53;;
40533;SDS011;26233;51.894;10.192;2023-08-31T05:50:55;5.05;;;4.55;;
40533;SDS011;26233;51.894;10.192;2023-08-31T05:53:22;5.25;;;4.53;;
40533;SDS011;26233;51.894;10.192;2023-08-31T05:55:50;5.63;;;5.13;;
40533;SDS011;26233;51.894;10.192;2023-08-31T05:58:17;5.10;;;4.60;;
40533;SDS011;26233;51.894;10.192;2023-08-31T06:00:44;5.43;;;4.63;;
40533;SDS011;26233;51.894;10.192;2023-08-31T06:03:11;4.38;;;3.97;;
40533;SDS011;26233;51.894;10.192;2023-08-31T06:05:38;4.28;;;3.88;;
40533;SDS011;26233;51.894;10.192;2023-08-31T06:08:05;3.85;;;3.42;;
40533;SDS011;26233;51.894;10.192;2023-08-31T06:10:32;4.07;;;3.67;;
40533;SDS011;26233;51.894;10.192;2023-08-31T06:13:00;3.58;;;3.22;;
40533;SDS011;26233;51.894;10.192;2023-08-31T06:15:28;3.53;;;3.22;;
40533;SDS011;26233;51.894;10.192;2023-08-31T06:17:55;3.20;;;2.78;;
40533;SDS011;26233;51.894;10.192;2023-08-31T06:20:22;2.85;;;2.65;;
40533;SDS011;26233;51.894;10.192;2023-08-31T06:22:49;2.85;;;2.63;;
40533;SDS011;26233;51.894;10.192;2023-08-31T06:25:16;3.20;;;2.90;;
40533;SDS011;26233;51.894;10.192;2023-08-31T06:27:43;3.20;;;2.90;;
40533;SDS011;26233;51.894;10.192;2023-08-31T06:30:12;3.03;;;2.72;;
40533;SDS011;26233;51.894;10.192;2023-08-31T06:32:41;2.72;;;2.53;;
40533;SDS011;26233;51.894;10.192;2023-08-31T06:35:11;3.00;;;2.80;;
40533;SDS011;26233;51.894;10.192;2023-08-31T06:37:38;3.30;;;3.00;;
40533;SDS011;26233;51.894;10.192;2023-08-31T06:40:06;3.47;;;3.03;;
40533;SDS011;26233;51.894;10.192;2023-08-31T06:42:34;2.92;;;2.72;;
40533;SDS011;26233;51.894;10.192;2023-08-31T06:45:02;3.30;;;3.00;;
40533;SDS011;26233;51.894;10.192;2023-08-31T06:47:34;3.10;;;2.90;;
40533;SDS011;26233;51.894;10.192;2023-08-31T06:50:01;3.85;;;3.20;;
40533;SDS011;26233;51.894;10.192;2023-08-31T06:52:28;3.10;;;2.80;;
40533;SDS011;26233;51.894;10.192;2023-08-31T06:54:59;3.35;;;2.75;;
40533;SDS011;26233;51.894;10.192;2023-08-31T06:57:26;3.47;;;3.17;;
40533;SDS011;26233;51.894;10.192;2023-08-31T06:59:54;3.45;;;3.15;;
40533;SDS011;26233;51.894;10.192;2023-08-31T07:02:21;3.13;;;2.92;;
40533;SDS011;26233;51.894;10.192;2023-08-31T07:04:50;2.95;;;2.75;;
40533;SDS011;26233;51.894;10.192;2023-08-31T07:07:17;3.15;;;2.85;;
40533;SDS011;26233;51.894;10.192;2023-08-31T07:09:45;3.00;;;2.80;;
40533;SDS011;26233;51.894;10.192;2023-08-31T07:12:13;3.15;;;2.95;;
40533;SDS011;26233;51.894;10.192;2023-08-31T07:14:40;3.10;;;2.90;;
40533;SDS011;26233;51.894;10.192;2023-08-31T07:17:09;3.40;;;3.10;;
40533;SDS011;26233;51.894;10.192;2023-08-31T07:19:36;3.65;;;3.13;;
40533;SDS011;26233;51.894;10.192;2023-08-31T07:22:04;3.40;;;3.10;;
40533;SDS011;26233;51.894;10.192;2023-08-31T07:24:35;3.30;;;3.00;;
40533;SDS011;26233;51.894;10.192;2023-08-31T07:27:02;3.53;;;2.88;;
40533;SDS011;26233;51.894;10.192;2023-08-31T07:29:30;3.53;;;3.22;;
40533;SDS011;26233;51.894;10.192;2023-08-31T07:31:57;3.50;;;3.20;;
40533;SDS011;26233;51.894;10.192;2023-08-31T07:34:24;3.47;;;3.10;;
40533;SDS011;26233;51.894;10.192;2023-08-31T07:36:51;3.22;;;2.92;;
40533;SDS011;26233;51.894;10.192;2023-08-31T07:39:22;2.97;;;2.78;;
40533;SDS011;26233;51.894;10.192;2023-08-31T07:41:49;3.05;;;2.85;;
40533;SDS011;26233;51.894;10.192;2023-08-31T07:44:20;3.33;;;3.03;;
40533;SDS011;26233;51.894;10.192;2023-08-31T07:46:47;3.03;;;2.83;;
40533;SDS011;26233;51.894;10.192;2023-08-31T07:49:14;3.17;;;2.97;;
40533;SDS011;26233;51.894;10.192;2023-08-31T07:51:41;3.25;;;2.95;;
40533;SDS011;26233;51.894;10.192;2023-08-31T07:54:08;3.20;;;3.00;;
40533;SDS011;26233;51.894;10.192;2023-08-31T07:56:37;3.20;;;2.92;;
40533;SDS011;26233;51.894;10.192;2023-08-31T07:59:06;2.97;;;2.78;;
40533;SDS011;26233;51.894;10.192;2023-08-31T08:01:35;3.05;;;2.85;;
40533;SDS011;26233;51.894;10.192;2023-08-31T08:04:02;3.17;;;2.97;;
40533;SDS011;26233;51.894;10.192;2023-08-31T08:06:29;3.28;;;2.70;;
40533;SDS011;26233;51.894;10.192;2023-08-31T08:08:56;2.88;;;2.67;;
40533;SDS011;26233;51.894;10.192;2023-08-31T08:11:23;2.80;;;2.60;;
40533;SDS011;26233;51.894;10.192;2023-08-31T08:13:52;2.60;;;2.40;;
40533;SDS011;26233;51.894;10.192;2023-08-31T08:16:19;2.72;;;2.53;;
40533;SDS011;26233;51.894;10.192;2023-08-31T08:18:46;2.90;;;2.70;;
40533;SDS011;26233;51.894;10.192;2023-08-31T08:21:13;2.30;;;2.10;;
40533;SDS011;26233;51.894;10.192;2023-08-31T08:23:40;2.63;;;2.42;;
40533;SDS011;26233;51.894;10.192;2023-08-31T08:26:07;1.90;;;1.70;;
40533;SDS011;26233;51.894;10.192;2023-08-31T08:28:36;2.00;;;1.90;;
40533;SDS011;26233;51.894;10.192;2023-08-31T08:31:05;1.83;;;1.73;;
40533;SDS011;26233;51.894;10.192;2023-08-31T08:33:32;2.67;;;1.75;;
40533;SDS011;26233;51.894;10.192;2023-08-31T08:36:00;1.73;;;1.63;;
40533;SDS011;26233;51.894;10.192;2023-08-31T08:38:28;2.10;;;1.70;;
40533;SDS011;26233;51.894;10.192;2023-08-31T08:40:57;4.70;;;1.90;;
40533;SDS011;26233;51.894;10.192;2023-08-31T08:43:24;1.80;;;1.65;;
40533;SDS011;26233;51.894;10.192;2023-08-31T08:45:52;2.20;;;2.03;;
40533;SDS011;26233;51.894;10.192;2023-08-31T08:48:22;2.08;;;1.85;;
40533;SDS011;26233;51.894;10.192;2023-08-31T08:50:49;2.80;;;2.13;;
40533;SDS011;26233;51.894;10.192;2023-08-31T08:53:17;1.90;;;1.80;;
40533;SDS011;26233;51.894;10.192;2023-08-31T08:55:44;2.30;;;2.10;;
40533;SDS011;26233;51.894;10.192;2023-08-31T08:58:11;2.08;;;1.88;;
40533;SDS011;26233;51.894;10.192;2023-08-31T09:00:38;1.92;;;1.83;;
40533;SDS011;26233;51.894;10.192;2023-08-31T09:03:06;1.90;;;1.77;;
40533;SDS011;26233;51.894;10.192;2023-08-31T09:05:35;2.05;;;1.90;;
40533;SDS011;26233;51.894;10.192;2023-08-31T09:08:03;1.98;;;1.85;;
40533;SDS011;26233;51.894;10.192;2023-08-31T09:10:35;2.88;;;2.00;;
40533;SDS011;26233;51.894;10.192;2023-08-31T09:13:07;2.95;;;2.00;;
40533;SDS011;26233;51.894;10.192;2023-08-31T09:15:36;2.20;;;2.00;;
40533;SDS011;26233;51.894;10.192;2023-08-31T09:18:07;2.10;;;1.90;;
40533;SDS011;26233;51.894;10.192;2023-08-31T09:20:46;1.90;;;1.80;;
40533;SDS011;26233;51.894;10.192;2023-08-31T09:23:14;1.77;;;1.67;;
40533;SDS011;26233;51.894;10.192;2023-08-31T09:25:42;2.15;;;1.70;;
40533;SDS011;26233;51.894;10.192;2023-08-31T09:28:18;2.03;;;1.77;;
40533;SDS011;26233;51.894;10.192;2023-08-31T09:30:48;1.95;;;1.73;;
40533;SDS011;26233;51.894;10.192;2023-08-31T09:33:17;1.55;;;1.45;;
40533;SDS011;26233;51.894;10.192;2023-08-31T09:35:48;1.63;;;1.52;;
40533;SDS011;26233;51.894;10.192;2023-08-31T09:38:16;1.92;;;1.83;;
40533;SDS011;26233;51.894;10.192;2023-08-31T09:40:44;1.92;;;1.83;;
40533;SDS011;26233;51.894;10.192;2023-08-31T09:43:11;1.40;;;1.30;;
40533;SDS011;26233;51.894;10.192;2023-08-31T09:45:39;1.70;;;1.40;;
40533;SDS011;26233;51.894;10.192;2023-08-31T09:48:06;1.80;;;1.55;;
40533;SDS011;26233;51.894;10.192;2023-08-31T09:50:34;1.40;;;1.30;;
40533;SDS011;26233;51.894;10.192;2023-08-31T09:53:04;1.75;;;1.40;;
40533;SDS011;26233;51.894;10.192;2023-08-31T09:55:36;1.83;;;1.10;;
40533;SDS011;26233;51.894;10.192;2023-08-31T09:58:06;1.50;;;1.40;;
40533;SDS011;26233;51.894;10.192;2023-08-31T10:00:35;2.58;;;1.50;;
40533;SDS011;26233;51.894;10.192;2023-08-31T10:03:03;1.48;;;1.17;;
40533;SDS011;26233;51.894;10.192;2023-08-31T10:05:31;1.25;;;1.13;;
40533;SDS011;26233;51.894;10.192;2023-08-31T10:07:59;1.25;;;1.15;;
40533;SDS011;26233;51.894;10.192;2023-08-31T10:10:28;2.90;;;1.42;;
40533;SDS011;26233;51.894;10.192;2023-08-31T10:12:56;1.90;;;1.15;;
40533;SDS011;26233;51.894;10.192;2023-08-31T10:15:24;1.45;;;1.10;;
40533;SDS011;26233;51.894;10.192;2023-08-31T10:17:59;1.83;;;1.10;;
40533;SDS011;26233;51.894;10.192;2023-08-31T10:20:27;1.70;;;1.33;;
40533;SDS011;26233;51.894;10.192;2023-08-31T10:22:56;2.17;;;1.25;;
40533;SDS011;26233;51.894;10.192;2023-08-31T10:25:24;2.08;;;1.30;;
40533;SDS011;26233;51.894;10.192;2023-08-31T10:27:53;1.75;;;1.25;;
40533;SDS011;26233;51.894;10.192;2023-08-31T10:30:26;1.17;;;1.10;;
40533;SDS011;26233;51.894;10.192;2023-08-31T10:35:50;1.63;;;1.30;;
40533;SDS011;26233;51.894;10.192;2023-08-31T10:38:25;1.50;;;1.15;;
40533;SDS011;26233;51.894;10.192;2023-08-31T10:40:59;1.30;;;1.20;;
40533;SDS011;26233;51.894;10.192;2023-08-31T10:43:47;1.58;;;1.42;;
40533;SDS011;26233;51.894;10.192;2023-08-31T10:46:16;1.90;;;1.40;;
40533;SDS011;26233;51.894;10.192;2023-08-31T10:48:49;1.10;;;1.00;;
40533;SDS011;26233;51.894;10.192;2023-08-31T10:51:18;1.30;;;1.20;;
40533;SDS011;26233;51.894;10.192;2023-08-31T10:53:47;1.20;;;1.10;;
40533;SDS011;26233;51.894;10.192;2023-08-31T10:56:15;1.77;;;1.25;;
40533;SDS011;26233;51.894;10.192;2023-08-31T10:58:43;1.20;;;1.10;;
40533;SDS011;26233;51.894;10.192;2023-08-31T11:04:21;1.45;;;1.10;;
40533;SDS011;26233;51.894;10.192;2023-08-31T11:06:49;1.10;;;1.00;;
40533;SDS011;26233;51.894;10.192;2023-08-31T11:09:41;1.33;;;1.08;;
40533;SDS011;26233;51.894;10.192;2023-08-31T11:12:10;1.13;;;1.02;;
40533;SDS011;26233;51.894;10.192;2023-08-31T11:14:39;1.45;;;0.98;;
40533;SDS011;26233;51.894;10.192;2023-08-31T11:17:06;1.33;;;0.90;;
40533;SDS011;26233;51.894;10.192;2023-08-31T11:19:34;2.60;;;1.40;;
40533;SDS011;26233;51.894;10.192;2023-08-31T11:22:04;1.75;;;1.08;;
40533;SDS011;26233;51.894;10.192;2023-08-31T11:24:34;1.50;;;0.80;;
40533;SDS011;26233;51.894;10.192;2023-08-31T11:27:02;1.27;;;0.95;;
40533;SDS011;26233;51.894;10.192;2023-08-31T11:29:35;1.63;;;0.80;;
40533;SDS011;26233;51.894;10.192;2023-08-31T11:32:08;1.80;;;1.10;;
40533;SDS011;26233;51.894;10.192;2023-08-31T11:34:39;1.60;;;0.93;;
40533;SDS011;26233;51.894;10.192;2023-08-31T11:37:11;1.50;;;1.00;;
40533;SDS011;26233;51.894;10.192;2023-08-31T11:39:48;1.50;;;0.95;;
40533;SDS011;26233;51.894;10.192;2023-08-31T11:42:16;1.88;;;1.27;;
40533;SDS011;26233;51.894;10.192;2023-08-31T11:44:47;1.10;;;1.00;;
40533;SDS011;26233;51.894;10.192;2023-08-31T11:47:16;1.13;;;1.08;;
40533;SDS011;26233;51.894;10.192;2023-08-31T11:49:44;1.30;;;1.20;;
40533;SDS011;26233;51.894;10.192;2023-08-31T11:52:13;1.85;;;1.13;;
40533;SDS011;26233;51.894;10.192;2023-08-31T11:54:41;1.20;;;1.10;;
40533;SDS011;26233;51.894;10.192;2023-08-31T11:57:09;1.30;;;1.20;;
40533;SDS011;26233;51.894;10.192;2023-08-31T11:59:37;1.92;;;1.35;;
40533;SDS011;26233;51.894;10.192;2023-08-31T12:02:08;1.40;;;1.30;;
40533;SDS011;26233;51.894;10.192;2023-08-31T12:04:42;1.35;;;1.25;;
40533;SDS011;26233;51.894;10.192;2023-08-31T12:07:10;2.03;;;1.33;;
40533;SDS011;26233;51.894;10.192;2023-08-31T12:09:38;1.48;;;1.38;;
40533;SDS011;26233;51.894;10.192;2023-08-31T12:12:05;1.55;;;1.30;;
40533;SDS011;26233;51.894;10.192;2023-08-31T12:14:36;1.48;;;1.30;;
40533;SDS011;26233;51.894;10.192;2023-08-31T12:17:06;1.55;;;1.10;;
40533;SDS011;26233;51.894;10.192;2023-08-31T12:19:36;1.50;;;1.27;;
40533;SDS011;26233;51.894;10.192;2023-08-31T12:22:04;1.33;;;1.00;;
40533;SDS011;26233;51.894;10.192;2023-08-31T12:24:37;1.58;;;1.48;;
40533;SDS011;26233;51.894;10.192;2023-08-31T12:27:05;1.48;;;1.05;;
40533;SDS011;26233;51.894;10.192;2023-08-31T12:29:33;1.20;;;1.10;;
40533;SDS011;26233;51.894;10.192;2023-08-31T12:32:00;1.60;;;1.08;;
40533;SDS011;26233;51.894;10.192;2023-08-31T12:34:31;1.20;;;1.05;;
40533;SDS011;26233;51.894;10.192;2023-08-31T12:36:58;1.90;;;1.10;;
40533;SDS011;26233;51.894;10.192;2023-08-31T12:39:27;1.25;;;1.15;;
40533;SDS011;26233;51.894;10.192;2023-08-31T12:41:54;1.38;;;1.27;;
40533;SDS011;26233;51.894;10.192;2023-08-31T12:44:21;1.20;;;1.10;;
40533;SDS011;26233;51.894;10.192;2023-08-31T12:46:50;1.20;;;1.10;;
40533;SDS011;26233;51.894;10.192;2023-08-31T12:49:17;1.67;;;1.17;;
40533;SDS011;26233;51.894;10.192;2023-08-31T12:51:48;1.52;;;1.08;;
40533;SDS011;26233;51.894;10.192;2023-08-31T12:54:17;1.30;;;1.10;;
40533;SDS011;26233;51.894;10.192;2023-08-31T12:56:45;1.45;;;1.17;;
40533;SDS011;26233;51.894;10.192;2023-08-31T12:59:12;1.23;;;1.05;;
40533;SDS011;26233;51.894;10.192;2023-08-31T13:01:39;2.80;;;1.90;;
40533;SDS011;26233;51.894;10.192;2023-08-31T13:04:06;2.80;;;2.03;;
40533;SDS011;26233;51.894;10.192;2023-08-31T13:06:33;2.10;;;1.83;;
40533;SDS011;26233;51.894;10.192;2023-08-31T13:09:03;1.65;;;1.30;;
40533;SDS011;26233;51.894;10.192;2023-08-31T13:11:33;1.40;;;1.20;;
40533;SDS011;26233;51.894;10.192;2023-08-31T13:14:00;1.48;;;1.30;;
40533;SDS011;26233;51.894;10.192;2023-08-31T13:16:28;1.25;;;1.15;;
40533;SDS011;26233;51.894;10.192;2023-08-31T13:18:55;1.20;;;1.10;;
40533;SDS011;26233;51.894;10.192;2023-08-31T13:21:22;1.10;;;1.00;;
40533;SDS011;26233;51.894;10.192;2023-08-31T13:23:49;1.35;;;1.25;;
40533;SDS011;26233;51.894;10.192;2023-08-31T13:26:17;0.95;;;0.95;;
40533;SDS011;26233;51.894;10.192;2023-08-31T13:28:44;1.30;;;1.20;;
40533;SDS011;26233;51.894;10.192;2023-08-31T13:31:11;1.35;;;1.05;;
40533;SDS011;26233;51.894;10.192;2023-08-31T13:33:38;0.90;;;0.90;;
40533;SDS011;26233;51.894;10.192;2023-08-31T13:36:05;1.17;;;1.08;;
40533;SDS011;26233;51.894;10.192;2023-08-31T13:38:33;0.90;;;0.90;;
40533;SDS011;26233;51.894;10.192;2023-08-31T13:41:01;0.95;;;0.90;;
40533;SDS011;26233;51.894;10.192;2023-08-31T13:43:29;1.10;;;1.00;;
40533;SDS011;26233;51.894;10.192;2023-08-31T13:45:56;1.40;;;1.20;;
40533;SDS011;26233;51.894;10.192;2023-08-31T13:48:23;0.85;;;0.85;;
40533;SDS011;26233;51.894;10.192;2023-08-31T13:50:51;1.67;;;0.90;;
40533;SDS011;26233;51.894;10.192;2023-08-31T13:53:18;1.08;;;0.90;;
40533;SDS011;26233;51.894;10.192;2023-08-31T13:55:45;1.02;;;1.00;;
40533;SDS011;26233;51.894;10.192;2023-08-31T13:58:12;1.10;;;1.00;;
40533;SDS011;26233;51.894;10.192;2023-08-31T14:00:42;1.90;;;1.10;;
40533;SDS011;26233;51.894;10.192;2023-08-31T14:03:12;1.20;;;1.10;;
40533;SDS011;26233;51.894;10.192;2023-08-31T14:05:39;1.90;;;1.67;;
40533;SDS011;26233;51.894;10.192;2023-08-31T14:08:06;3.17;;;2.35;;
40533;SDS011;26233;51.894;10.192;2023-08-31T14:10:33;3.13;;;2.20;;
40533;SDS011;26233;51.894;10.192;2023-08-31T14:13:05;1.42;;;1.33;;
40533;SDS011;26233;51.894;10.192;2023-08-31T14:15:37;1.50;;;1.40;;
40533;SDS011;26233;51.894;10.192;2023-08-31T14:18:10;1.30;;;1.20;;
40533;SDS011;26233;51.894;10.192;2023-08-31T14:20:37;2.10;;;1.50;;
40533;SDS011;26233;51.894;10.192;2023-08-31T14:23:04;1.63;;;1.35;;
40533;SDS011;26233;51.894;10.192;2023-08-31T14:25:35;1.45;;;1.30;;
40533;SDS011;26233;51.894;10.192;2023-08-31T14:28:03;1.40;;;1.30;;
40533;SDS011;26233;51.894;10.192;2023-08-31T14:30:31;1.40;;;1.00;;
40533;SDS011;26233;51.894;10.192;2023-08-31T14:32:58;0.98;;;0.80;;
40533;SDS011;26233;51.894;10.192;2023-08-31T14:35:29;1.40;;;0.70;;
40533;SDS011;26233;51.894;10.192;2023-08-31T14:37:57;0.60;;;0.60;;
40533;SDS011;26233;51.894;10.192;2023-08-31T14:40:25;0.82;;;0.80;;
40533;SDS011;26233;51.894;10.192;2023-08-31T14:42:52;0.93;;;0.80;;
40533;SDS011;26233;51.894;10.192;2023-08-31T14:45:19;0.88;;;0.80;;
40533;SDS011;26233;51.894;10.192;2023-08-31T14:47:46;1.90;;;1.42;;
40533;SDS011;26233;51.894;10.192;2023-08-31T14:50:13;1.40;;;1.30;;
40533;SDS011;26233;51.894;10.192;2023-08-31T14:52:42;1.05;;;0.93;;
40533;SDS011;26233;51.894;10.192;2023-08-31T14:55:09;2.00;;;1.60;;
40533;SDS011;26233;51.894;10.192;2023-08-31T14:57:36;2.25;;;2.05;;
40533;SDS011;26233;51.894;10.192;2023-08-31T15:00:07;1.65;;;1.55;;
40533;SDS011;26233;51.894;10.192;2023-08-31T15:02:35;2.78;;;1.60;;
40533;SDS011;26233;51.894;10.192;2023-08-31T15:05:02;2.95;;;1.75;;
40533;SDS011;26233;51.894;10.192;2023-08-31T15:07:30;2.05;;;1.80;;
40533;SDS011;26233;51.894;10.192;2023-08-31T15:09:58;2.22;;;1.60;;
40533;SDS011;26233;51.894;10.192;2023-08-31T15:12:26;2.20;;;2.00;;
40533;SDS011;26233;51.894;10.192;2023-08-31T15:14:53;2.35;;;1.90;;
40533;SDS011;26233;51.894;10.192;2023-08-31T15:17:21;1.88;;;1.77;;
40533;SDS011;26233;51.894;10.192;2023-08-31T15:19:50;1.20;;;1.10;;
40533;SDS011;26233;51.894;10.192;2023-08-31T15:22:20;1.33;;;1.20;;
40533;SDS011;26233;51.894;10.192;2023-08-31T15:24:50;1.20;;;1.00;;
40533;SDS011;26233;51.894;10.192;2023-08-31T15:27:19;1.50;;;0.95;;
40533;SDS011;26233;51.894;10.192;2023-08-31T15:29:46;1.00;;;0.90;;
40533;SDS011;26233;51.894;10.192;2023-08-31T15:32:13;1.00;;;0.95;;
40533;SDS011;26233;51.894;10.192;2023-08-31T15:34:41;1.08;;;0.80;;
40533;SDS011;26233;51.894;10.192;2023-08-31T15:37:08;0.85;;;0.85;;
40533;SDS011;26233;51.894;10.192;2023-08-31T15:39:36;1.90;;;1.67;;
40533;SDS011;26233;51.894;10.192;2023-08-31T15:42:03;1.40;;;1.30;;
40533;SDS011;26233;51.894;10.192;2023-08-31T15:44:32;1.20;;;1.10;;
40533;SDS011;26233;51.894;10.192;2023-08-31T15:47:06;1.55;;;1.10;;
40533;SDS011;26233;51.894;10.192;2023-08-31T15:49:33;1.40;;;1.10;;
40533;SDS011;26233;51.894;10.192;2023-08-31T15:52:00;1.40;;;1.23;;
40533;SDS011;26233;51.894;10.192;2023-08-31T15:54:31;1.60;;;1.25;;
40533;SDS011;26233;51.894;10.192;2023-08-31T15:56:58;1.65;;;1.30;;
40533;SDS011;26233;51.894;10.192;2023-08-31T15:59:28;1.30;;;1.15;;
40533;SDS011;26233;51.894;10.192;2023-08-31T16:01:56;1.40;;;1.30;;
40533;SDS011;26233;51.894;10.192;2023-08-31T16:04:23;1.50;;;1.40;;
40533;SDS011;26233;51.894;10.192;2023-08-31T16:06:53;1.90;;;1.80;;
40533;SDS011;26233;51.894;10.192;2023-08-31T16:09:20;2.10;;;2.00;;
40533;SDS011;26233;51.894;10.192;2023-08-31T16:11:47;3.05;;;2.85;;
40533;SDS011;26233;51.894;10.192;2023-08-31T16:14:14;2.28;;;2.10;;
40533;SDS011;26233;51.894;10.192;2023-08-31T16:16:41;1.92;;;1.75;;
40533;SDS011;26233;51.894;10.192;2023-08-31T16:19:09;2.83;;;1.63;;
40533;SDS011;26233;51.894;10.192;2023-08-31T16:21:37;1.63;;;1.52;;
40533;SDS011;26233;51.894;10.192;2023-08-31T16:24:04;1.65;;;1.55;;
40533;SDS011;26233;51.894;10.192;2023-08-31T16:26:31;1.90;;;1.80;;
40533;SDS011;26233;51.894;10.192;2023-08-31T16:28:58;1.83;;;1.65;;
40533;SDS011;26233;51.894;10.192;2023-08-31T16:31:25;1.70;;;1.40;;
40533;SDS011;26233;51.894;10.192;2023-08-31T16:33:52;1.83;;;1.73;;
40533;SDS011;26233;51.894;10.192;2023-08-31T16:36:22;1.50;;;1.40;;
40533;SDS011;26233;51.894;10.192;2023-08-31T16:38:53;1.30;;;1.20;;
40533;SDS011;26233;51.894;10.192;2023-08-31T16:41:20;2.05;;;1.38;;
40533;SDS011;26233;51.894;10.192;2023-08-31T16:43:48;1.35;;;1.25;;
40533;SDS011;26233;51.894;10.192;2023-08-31T16:46:18;1.48;;;1.38;;
40533;SDS011;26233;51.894;10.192;2023-08-31T16:48:45;1.30;;;1.17;;
40533;SDS011;26233;51.894;10.192;2023-08-31T16:51:12;1.50;;;1.40;;
40533;SDS011;26233;51.894;10.192;2023-08-31T16:53:40;1.48;;;1.30;;
40533;SDS011;26233;51.894;10.192;2023-08-31T16:56:08;1.38;;;1.27;;
40533;SDS011;26233;51.894;10.192;2023-08-31T16:58:35;1.38;;;1.27;;
40533;SDS011;26233;51.894;10.192;2023-08-31T17:01:02;1.33;;;1.15;;
40533;SDS011;26233;51.894;10.192;2023-08-31T17:03:30;1.25;;;1.15;;